Weather History for Ogallala, NE

Change the Weather History Date:

Saturday, February 16, 2013

  Actual Average Record
Temperature  
Mean Temperature 40 °F -  
Max Temperature 57 °F 40 °F 71 °F (2011)
Min Temperature 23 °F 15 °F -12 °F (1979)
Degree Days  
Heating Degree Days 25    
Moisture  
Dew Point 23 °F    
Average Humidity 62    
Maximum Humidity 84    
Minimum Humidity 28    
Precipitation  
Precipitation 0.00 in - - ()
Sea Level Pressure  
Sea Level Pressure 30.02 in    
Wind  
Wind Speed 9 mph (West)    
Max Wind Speed 25 mph    
Max Gust Speed 33 mph    
Visibility 10 miles    
Events      
Averages and records for this station are not official NWS values.
T = Trace of Precipitation, MM = Missing Value Source: NWS Daily Summary

Daily Weather History Graph

Daily Weather History Graph

Search for Another Location

Airport:

Trip Planner

Search our weather history database for the weather conditions in past years. The results will help you decide how hot, cold, wet, or windy it might be!

Date:

Astronomy

Feb. 16, 2013 Rise Set
Actual Time 6:39 AM MST 5:22 PM MST
Civil Twilight 6:11 AM MST 5:51 PM MST
Nautical Twilight 5:39 AM MST 6:23 PM MST
Astronomical Twilight 5:07 AM MST 6:55 PM MST
Moon 9:50 AM MST (2/16) No Moon Set
Length of Visible Light 11h 39m
Length of Day
10h 43m
Waxing Crescent, 40% of the Moon is Illuminated
Feb 16
Waxing Crescent
Feb 17
First Quarter
Feb 25
Full
Mar 4
Last Quarter
Mar 11
New

Hourly Weather History & Observations

Time (MST) Temp. Windchill Dew Point Humidity Pressure Visibility Wind Dir Wind Speed Gust Speed Precip Events Conditions
12:15 AM 23.5 °F 15.4 °F 19.2 °F 84% 30.21 in 10.0 mi West 6.9 mph - N/A   Overcast
12:35 AM 24.3 °F 16.3 °F 19.4 °F 82% 30.20 in 10.0 mi WSW 6.9 mph - N/A   Overcast
12:55 AM 24.4 °F 17.5 °F 19.9 °F 83% 30.18 in 10.0 mi West 5.8 mph - N/A   Overcast
1:15 AM 25.0 °F 17.1 °F 20.3 °F 82% 30.18 in 10.0 mi West 6.9 mph - N/A   Overcast
1:35 AM 25.7 °F 16.4 °F 20.5 °F 81% 30.17 in 10.0 mi West 9.2 mph - N/A   Overcast
1:55 AM 25.9 °F 19.2 °F 20.7 °F 81% 30.15 in 10.0 mi WSW 5.8 mph - N/A   Scattered Clouds
2:15 AM 26.1 °F 19.4 °F 20.7 °F 80% 30.14 in 10.0 mi WSW 5.8 mph - N/A   Mostly Cloudy
2:35 AM 26.6 °F 18.2 °F 20.3 °F 77% 30.12 in 10.0 mi WSW 8.1 mph - N/A   Overcast
2:55 AM 27.0 °F 19.5 °F 21.0 °F 78% 30.12 in 10.0 mi WSW 6.9 mph - N/A   Overcast
3:15 AM 27.5 °F 19.3 °F 21.2 °F 77% 30.11 in 10.0 mi WSW 8.1 mph - N/A   Overcast
3:35 AM 28.0 °F 24.2 °F 21.7 °F 77% 30.10 in 10.0 mi West 3.5 mph - N/A   Overcast
3:55 AM 28.6 °F 23.5 °F 21.9 °F 76% 30.09 in 10.0 mi West 4.6 mph - N/A   Overcast
4:15 AM 29.5 °F 21.1 °F 21.9 °F 73% 30.08 in 10.0 mi West 9.2 mph - N/A   Overcast
4:35 AM 29.7 °F 22.8 °F 21.9 °F 73% 30.07 in 10.0 mi West 6.9 mph - N/A   Overcast
4:55 AM 29.3 °F 22.3 °F 22.5 °F 76% 30.07 in 10.0 mi West 6.9 mph - N/A   Overcast
5:15 AM 29.3 °F 22.3 °F 22.3 °F 75% 30.06 in 10.0 mi West 6.9 mph - N/A   Overcast
5:35 AM 29.3 °F 21.5 °F 23.0 °F 77% 30.05 in 10.0 mi West 8.1 mph - N/A   Overcast
5:55 AM 29.3 °F 22.3 °F 23.0 °F 77% 30.05 in 10.0 mi WSW 6.9 mph - N/A   Overcast
6:15 AM 29.1 °F 23.0 °F 22.5 °F 76% 30.04 in 10.0 mi WSW 5.8 mph - N/A   Mostly Cloudy
6:35 AM 28.4 °F 19.7 °F 22.6 °F 79% 30.04 in 10.0 mi WSW 9.2 mph - N/A   Mostly Cloudy
6:55 AM 28.9 °F 21.1 °F 22.8 °F 78% 30.04 in 10.0 mi WSW 8.1 mph - N/A   Mostly Cloudy
7:15 AM 29.7 °F 21.3 °F 23.2 °F 77% 30.04 in 10.0 mi WSW 9.2 mph - N/A   Clear
7:35 AM 32.4 °F 23.5 °F 25.0 °F 74% 30.05 in 10.0 mi West 11.5 mph - N/A   Mostly Cloudy
7:55 AM 37.8 °F 28.3 °F 25.3 °F 61% 30.04 in 10.0 mi WNW 17.3 mph 20.7 mph N/A   Overcast
8:15 AM 39.6 °F 31.3 °F 24.8 °F 56% 30.04 in 10.0 mi West 15.0 mph - N/A   Overcast
8:35 AM 41.4 °F 33.6 °F 25.0 °F 52% 30.04 in 10.0 mi WNW 15.0 mph - N/A   Mostly Cloudy
11:15 AM 51.1 °F - 22.8 °F 33% 30.02 in 10.0 mi WNW 24.2 mph 32.2 mph N/A   Clear
11:35 AM 51.8 °F - 23.4 °F 33% 30.02 in 10.0 mi WNW 21.9 mph 33.4 mph N/A   Clear
11:55 AM 52.7 °F - 23.0 °F 31% 30.01 in 10.0 mi WNW 24.2 mph 29.9 mph N/A   Clear
12:15 PM 54.0 °F - 23.4 °F 30% 30.01 in 10.0 mi NW 21.9 mph 28.8 mph N/A   Clear
12:35 PM 54.3 °F - 23.4 °F 30% 30.01 in 10.0 mi NW 23.0 mph 29.9 mph N/A   Clear
12:55 PM 54.9 °F - 24.1 °F 30% 30.00 in 10.0 mi NW 20.7 mph 26.5 mph N/A   Clear
1:15 PM 55.9 °F - 23.9 °F 29% 30.00 in 10.0 mi NW 23.0 mph 29.9 mph N/A   Clear
1:35 PM 56.3 °F - 23.5 °F 28% 29.99 in 10.0 mi NW 17.3 mph 27.6 mph N/A   Clear
1:55 PM 56.3 °F - 23.5 °F 28% 29.99 in 10.0 mi NW 19.6 mph 25.3 mph N/A   Clear
2:15 PM 57.0 °F - 25.0 °F 29% 29.98 in 10.0 mi NW 19.6 mph 26.5 mph N/A   Clear
2:35 PM 56.3 °F - 24.4 °F 29% 29.98 in 10.0 mi NNW 25.3 mph 28.8 mph N/A   Clear
2:55 PM 56.3 °F - 24.4 °F 29% 29.98 in 10.0 mi NW 18.4 mph - N/A   Clear
3:15 PM 55.9 °F - 24.8 °F 30% 29.97 in 10.0 mi NW 13.8 mph 19.6 mph N/A   Clear
3:35 PM 55.8 °F - 24.8 °F 30% 29.97 in 10.0 mi NNW 15.0 mph 23.0 mph N/A   Clear
3:55 PM 55.4 °F - 25.2 °F 31% 29.96 in 10.0 mi NW 12.7 mph - N/A   Clear
4:15 PM 54.7 °F - 25.5 °F 32% 29.96 in 10.0 mi NW 10.4 mph - N/A   Clear
4:35 PM 53.4 °F - 25.7 °F 34% 29.96 in 10.0 mi NW 6.9 mph - N/A   Clear
4:55 PM 50.4 °F - 25.9 °F 39% 29.96 in 10.0 mi NW 5.8 mph - N/A   Clear
5:15 PM 45.5 °F 43.2 °F 25.3 °F 45% 29.96 in 10.0 mi West 4.6 mph - N/A   Clear
5:35 PM 41.4 °F 39.4 °F 25.2 °F 53% 29.95 in 10.0 mi NNW 3.5 mph - N/A   Clear
5:55 PM 39.0 °F 36.8 °F 25.3 °F 58% 29.96 in 10.0 mi NW 3.5 mph - N/A   Clear
6:15 PM 36.3 °F - 24.8 °F 63% 29.96 in 10.0 mi Calm Calm - N/A   Clear
6:35 PM 35.4 °F 32.6 °F 24.8 °F 65% 29.96 in 10.0 mi WNW 3.5 mph - N/A   Clear
6:55 PM 37.9 °F - 25.7 °F 61% 29.95 in 10.0 mi Calm Calm - N/A   Clear
7:15 PM 31.1 °F 26.4 °F 23.5 °F 74% 29.95 in 10.0 mi West 4.6 mph - N/A   Clear
7:35 PM 30.9 °F 26.2 °F 23.0 °F 72% 29.95 in 10.0 mi West 4.6 mph - N/A   Clear
7:55 PM 30.7 °F 24.9 °F 23.0 °F 73% 29.95 in 10.0 mi WNW 5.8 mph - N/A   Clear
8:15 PM 29.3 °F 22.3 °F 23.2 °F 78% 29.95 in 10.0 mi West 6.9 mph - N/A   Clear
8:35 PM 31.3 °F 24.7 °F 24.6 °F 76% 29.95 in 10.0 mi WSW 6.9 mph - N/A   Clear
8:55 PM 31.5 °F 24.9 °F 24.8 °F 76% 29.95 in 10.0 mi WSW 6.9 mph - N/A   Clear
9:15 PM 30.0 °F 23.2 °F 24.1 °F 79% 29.95 in 10.0 mi WSW 6.9 mph - N/A   Clear
9:35 PM 30.2 °F 26.7 °F 24.3 °F 79% 29.95 in 10.0 mi West 3.5 mph - N/A   Clear
9:55 PM 31.5 °F 25.8 °F 24.6 °F 76% 29.95 in 10.0 mi West 5.8 mph - N/A   Clear
10:15 PM 27.7 °F 20.4 °F 22.5 °F 81% 29.94 in 10.0 mi WSW 6.9 mph - N/A   Clear
10:35 PM 29.1 °F 23.0 °F 22.8 °F 77% 29.94 in 10.0 mi WSW 5.8 mph - N/A   Clear
10:55 PM 26.6 °F 20.0 °F 21.4 °F 81% 29.92 in 10.0 mi West 5.8 mph - N/A   Clear
11:15 PM 27.9 °F 24.0 °F 22.3 °F 80% 29.92 in 10.0 mi West 3.5 mph - N/A   Clear
11:35 PM 29.1 °F 25.4 °F 23.0 °F 78% 29.92 in 10.0 mi WSW 3.5 mph - N/A   Clear
11:55 PM 29.1 °F 21.3 °F 23.4 °F 79% 29.92 in 10.0 mi West 8.1 mph - N/A   Clear